Archer, Wyoming
Current Conditions -  °F | °C
As of 5:53 AM on Thursday 27 Nov 2014 (Local Time) from KCYS Reporting Station
Clear Clear  
Wind Chill: 36°   Ceiling: Unl
Heat Index: 44°   Visibility: 10mi
Dew Point: 19°   Wind: 20mph
Humidity: 37%   Direction: 260°W
Pressure: 30.16"   Gusts: NA
Location:  41.4091°N, 104.861°W
Report Text: KCYS 271253Z AUTO 26017KT 10SM CLR 07/M07 A3016 RMK AO2 PK WND 26027/1205 SLP216 T00671072
Loading
Personal Weather Stations






























Interactive Weather Map New forecast layout! Learn more

10-Day Weather Forecast

Advertisements
Track Severe Weather on mobile